Terminal Aerodrome Forecast
Issued by NWS

Home | Current Version | Previous Version | Text Only | Print | Product List | Glossary On
Versions: 1 2 3 4 5 6 7 8 9 10 11 12 13 14 15 16 17 18 19 20
000
FTUS43 KMQT 261129
TAFSAW
TAF
KSAW 261129Z 2612/2712 19005KT P6SM BKN060
     FM261800 18010KT 6SM -SN SCT025 OVC045
     FM262100 18010KT 3SM -SN OVC020
     FM262300 16008KT 2SM -SN BR OVC015
     FM270700 14005KT 3SM -SN BR OVC008=

USA.gov is the U.S. government's official web portal to all federal, state and local government web resources and services.